Time;durP1;ratioP1;P1;durP2;ratioP2;P2;SDS_P1;SDS_P2;PMS_P1;PMS_P2;Temp;Humidity;BMP_temperature;BMP_pressure;BME280_temperature;BME280_humidity;BME280_pressure;Samples;Min_cycle;Max_cycle;Signal;HPM_P1;HPM_P2
2023/12/10 00:00:50;;;;;;;8.17;5.13;;;;;;;;;;4975770;28;89820;-66
2023/12/10 00:03:20;;;;;;;8.50;4.37;;;;;;;;;;4978068;28;87883;-66
2023/12/10 00:05:49;;;;;;;8.50;5.10;;;;;;;;;;4975048;28;88961;-66
2023/12/10 00:08:32;;;;;;;10.33;5.30;;;;;;;;;;4979136;28;87649;-66
2023/12/10 00:11:00;;;;;;;8.90;4.80;;;;;;;;;;4978573;28;90124;-66
2023/12/10 00:13:29;;;;;;;6.07;3.93;;;;;;;;;;4978663;28;89143;-66
2023/12/10 00:15:57;;;;;;;6.73;3.43;;;;;;;;;;4976182;28;90839;-66
2023/12/10 00:18:28;;;;;;;5.33;3.63;;;;;;;;;;4982073;28;87672;-66
2023/12/10 00:20:57;;;;;;;9.77;4.40;;;;;;;;;;4977139;28;89735;-67
2023/12/10 00:23:26;;;;;;;9.70;4.77;;;;;;;;;;4978868;28;89017;-67
2023/12/10 00:25:56;;;;;;;6.23;3.43;;;;;;;;;;4978394;28;89406;-67
2023/12/10 00:28:25;;;;;;;8.77;4.30;;;;;;;;;;4978091;28;88178;-67
2023/12/10 00:30:53;;;;;;;7.23;3.43;;;;;;;;;;4978264;28;89706;-67
2023/12/10 00:33:22;;;;;;;7.67;3.67;;;;;;;;;;4978693;28;88907;-67
2023/12/10 00:35:50;;;;;;;6.90;3.00;;;;;;;;;;4975191;28;89425;-67
2023/12/10 00:38:21;;;;;;;5.43;2.67;;;;;;;;;;4979273;28;87687;-67
2023/12/10 00:40:50;;;;;;;7.93;3.43;;;;;;;;;;4976944;28;89735;-66
2023/12/10 00:43:19;;;;;;;9.80;3.60;;;;;;;;;;4975481;28;89019;-66
2023/12/10 00:45:48;;;;;;;6.53;3.70;;;;;;;;;;4977187;28;88975;-66
2023/12/10 00:48:16;;;;;;;12.20;4.27;;;;;;;;;;4979026;28;87804;-67
2023/12/10 00:50:45;;;;;;;8.70;3.27;;;;;;;;;;4977555;28;89609;-66
2023/12/10 00:53:14;;;;;;;7.13;2.80;;;;;;;;;;4976583;28;89044;-67
2023/12/10 00:55:46;;;;;;;5.47;3.40;;;;;;;;;;4977410;28;89033;-67
2023/12/10 00:58:16;;;;;;;5.70;3.37;;;;;;;;;;4977090;28;87347;-66
2023/12/10 01:00:45;;;;;;;7.60;3.60;;;;;;;;;;4976079;28;89252;-66
2023/12/10 01:03:14;;;;;;;9.97;3.70;;;;;;;;;;4975585;28;89686;-67
2023/12/10 01:05:43;;;;;;;8.00;3.77;;;;;;;;;;4975514;28;88943;-66
2023/12/10 01:08:12;;;;;;;4.47;2.87;;;;;;;;;;4980803;28;89004;-67
2023/12/10 01:10:40;;;;;;;4.17;2.40;;;;;;;;;;4980387;28;88814;-67
2023/12/10 01:13:09;;;;;;;7.53;4.00;;;;;;;;;;4980823;28;89100;-66
2023/12/10 01:15:37;;;;;;;5.37;3.40;;;;;;;;;;4981254;28;88357;-67
2023/12/10 01:18:07;;;;;;;7.93;3.40;;;;;;;;;;4980268;28;88349;-66
2023/12/10 01:20:37;;;;;;;6.13;4.13;;;;;;;;;;4977018;28;89667;-67
2023/12/10 01:23:06;;;;;;;3.17;2.20;;;;;;;;;;4978061;28;89174;-67
2023/12/10 01:25:35;;;;;;;5.23;2.97;;;;;;;;;;4980842;28;88776;-66
2023/12/10 01:28:03;;;;;;;11.93;2.90;;;;;;;;;;4980696;28;87470;-66
2023/12/10 01:30:32;;;;;;;4.27;2.53;;;;;;;;;;4981311;28;89622;-66
2023/12/10 01:33:01;;;;;;;5.07;2.80;;;;;;;;;;4981102;28;89333;-65
2023/12/10 01:35:31;;;;;;;5.17;2.67;;;;;;;;;;4980928;28;88851;-66
2023/12/10 01:37:59;;;;;;;3.57;2.77;;;;;;;;;;4981357;28;87691;-66
2023/12/10 01:40:28;;;;;;;5.27;2.67;;;;;;;;;;4980637;28;92794;-66
2023/12/10 01:42:56;;;;;;;3.90;2.13;;;;;;;;;;4981371;28;87999;-66
2023/12/10 01:45:25;;;;;;;5.20;2.87;;;;;;;;;;4980724;28;88858;-67
2023/12/10 01:47:53;;;;;;;5.37;2.37;;;;;;;;;;4979282;28;87655;-67
2023/12/10 01:50:22;;;;;;;3.70;2.73;;;;;;;;;;4980611;28;89532;-67
2023/12/10 01:52:52;;;;;;;5.13;2.80;;;;;;;;;;4980710;28;89302;-66
2023/12/10 01:55:21;;;;;;;6.70;3.03;;;;;;;;;;4980570;28;88738;-67
2023/12/10 01:57:49;;;;;;;2.80;2.30;;;;;;;;;;4980382;28;87633;-66
2023/12/10 02:00:19;;;;;;;6.77;2.30;;;;;;;;;;4977993;28;89960;-67
2023/12/10 02:02:47;;;;;;;3.23;1.87;;;;;;;;;;4981028;28;88937;-67
2023/12/10 02:05:15;;;;;;;3.70;2.30;;;;;;;;;;4980496;28;88045;-66
2023/12/10 02:07:44;;;;;;;5.87;2.47;;;;;;;;;;4980777;28;87530;-66
2023/12/10 02:10:13;;;;;;;9.27;2.83;;;;;;;;;;4979559;28;89676;-65
2023/12/10 02:12:42;;;;;;;4.40;2.20;;;;;;;;;;4979890;28;89096;-66
2023/12/10 02:15:14;;;;;;;3.23;2.20;;;;;;;;;;4981747;28;89449;-66
2023/12/10 02:17:43;;;;;;;3.07;2.10;;;;;;;;;;4978865;28;88953;-66
2023/12/10 02:20:13;;;;;;;4.77;2.43;;;;;;;;;;4979172;28;89799;-68
2023/12/10 02:22:44;;;;;;;3.17;2.00;;;;;;;;;;4980137;28;89238;-67
2023/12/10 02:25:13;;;;;;;3.87;1.70;;;;;;;;;;4978276;28;89007;-66
2023/12/10 02:27:43;;;;;;;3.83;1.57;;;;;;;;;;4980145;28;87657;-66
2023/12/10 02:30:13;;;;;;;2.73;1.80;;;;;;;;;;4978289;28;89377;-66
2023/12/10 02:32:42;;;;;;;3.73;2.30;;;;;;;;;;4979839;28;90396;-67
2023/12/10 02:35:11;;;;;;;1.90;1.50;;;;;;;;;;4978080;28;88850;-67
2023/12/10 02:37:40;;;;;;;2.30;1.77;;;;;;;;;;4977018;28;88280;-67
2023/12/10 02:40:12;;;;;;;2.17;1.63;;;;;;;;;;4981499;28;89716;-66
2023/12/10 02:42:41;;;;;;;3.07;1.60;;;;;;;;;;4979799;28;90425;-67
2023/12/10 02:45:11;;;;;;;2.17;1.43;;;;;;;;;;4980242;28;87680;-67
2023/12/10 02:47:40;;;;;;;4.27;1.97;;;;;;;;;;4978875;28;88141;-67
2023/12/10 02:50:10;;;;;;;1.87;1.17;;;;;;;;;;4978690;28;89604;-66
2023/12/10 02:52:38;;;;;;;3.13;1.30;;;;;;;;;;4980185;28;88883;-66
2023/12/10 02:55:09;;;;;;;5.77;1.70;;;;;;;;;;4977151;28;88659;-66
2023/12/10 02:57:37;;;;;;;3.03;1.37;;;;;;;;;;4979066;28;87528;-66
2023/12/10 03:00:07;;;;;;;3.30;1.17;;;;;;;;;;4977685;28;89741;-66
2023/12/10 03:02:38;;;;;;;2.00;1.30;;;;;;;;;;4979551;28;89058;-66
2023/12/10 03:05:08;;;;;;;1.57;1.13;;;;;;;;;;4978590;28;88872;-66
2023/12/10 03:07:37;;;;;;;4.90;1.37;;;;;;;;;;4976843;28;88509;-66
2023/12/10 03:10:06;;;;;;;3.57;1.73;;;;;;;;;;4978932;28;89680;-66
2023/12/10 03:12:34;;;;;;;3.90;2.30;;;;;;;;;;4979015;28;89358;-66
2023/12/10 03:15:03;;;;;;;3.37;1.60;;;;;;;;;;4976781;28;88817;-66
2023/12/10 03:17:31;;;;;;;1.60;1.10;;;;;;;;;;4979774;28;87475;-66
2023/12/10 03:20:01;;;;;;;5.13;1.40;;;;;;;;;;4978713;28;89458;-67
2023/12/10 03:22:30;;;;;;;2.30;1.50;;;;;;;;;;4981668;28;89081;-66
2023/12/10 03:24:59;;;;;;;3.90;1.57;;;;;;;;;;4981151;28;87780;-66
2023/12/10 03:27:27;;;;;;;2.53;1.13;;;;;;;;;;4981806;28;87611;-66
2023/12/10 03:29:55;;;;;;;5.80;1.33;;;;;;;;;;4979220;28;89713;-66
2023/12/10 03:32:24;;;;;;;2.23;0.97;;;;;;;;;;4979071;28;89055;-65
2023/12/10 03:34:53;;;;;;;3.60;1.03;;;;;;;;;;4979086;28;88908;-64
2023/12/10 03:37:24;;;;;;;3.80;1.07;;;;;;;;;;4979356;28;87815;-65
2023/12/10 03:39:53;;;;;;;4.20;1.30;;;;;;;;;;4991389;28;90403;-65
2023/12/10 03:42:21;;;;;;;3.40;1.30;;;;;;;;;;4981704;28;89226;-64
2023/12/10 03:44:51;;;;;;;3.33;1.63;;;;;;;;;;4980202;28;87793;-65
2023/12/10 03:47:23;;;;;;;4.03;1.00;;;;;;;;;;4976758;28;87608;-65
2023/12/10 03:49:51;;;;;;;1.93;0.87;;;;;;;;;;4985202;28;89617;-65
2023/12/10 03:52:21;;;;;;;1.57;1.03;;;;;;;;;;4981440;28;89019;-64
2023/12/10 03:54:52;;;;;;;1.63;1.37;;;;;;;;;;4977652;28;89269;-65
2023/12/10 03:57:20;;;;;;;3.90;1.60;;;;;;;;;;4979731;28;87430;-65
2023/12/10 03:59:48;;;;;;;4.77;1.30;;;;;;;;;;4981856;28;89575;-64
2023/12/10 04:02:17;;;;;;;5.30;1.10;;;;;;;;;;4978723;28;88035;-65
2023/12/10 04:04:46;;;;;;;1.87;0.70;;;;;;;;;;4980814;28;88798;-65
2023/12/10 04:07:14;;;;;;;3.50;1.30;;;;;;;;;;4992885;28;87731;-65
2023/12/10 04:09:43;;;;;;;1.23;0.90;;;;;;;;;;4982869;28;89743;-65
2023/12/10 04:12:13;;;;;;;2.33;1.20;;;;;;;;;;4984072;28;89057;-65
2023/12/10 04:14:41;;;;;;;2.00;1.27;;;;;;;;;;4991873;28;89232;-65
2023/12/10 04:17:09;;;;;;;1.23;0.83;;;;;;;;;;4990701;28;87616;-65
2023/12/10 04:19:41;;;;;;;2.30;1.20;;;;;;;;;;4980036;28;89720;-65
2023/12/10 04:22:10;;;;;;;2.17;1.53;;;;;;;;;;4976382;28;89067;-65
2023/12/10 04:24:39;;;;;;;3.63;1.07;;;;;;;;;;4981027;28;88858;-64
2023/12/10 04:27:07;;;;;;;0.60;0.60;;;;;;;;;;4975496;28;87678;-65
2023/12/10 04:29:37;;;;;;;1.13;0.47;;;;;;;;;;4980537;28;89627;-64
2023/12/10 04:32:05;;;;;;;2.00;0.80;;;;;;;;;;4979754;28;87964;-65
2023/12/10 04:34:34;;;;;;;3.57;1.20;;;;;;;;;;4978347;28;88122;-65
2023/12/10 04:37:02;;;;;;;2.03;0.83;;;;;;;;;;4979424;28;87644;-64
2023/12/10 04:39:31;;;;;;;2.30;1.30;;;;;;;;;;4980040;28;89677;-66
2023/12/10 04:41:59;;;;;;;2.60;0.87;;;;;;;;;;4979806;28;91015;-65
2023/12/10 04:44:32;;;;;;;2.83;0.80;;;;;;;;;;4981538;28;88837;-65
2023/12/10 04:47:03;;;;;;;5.20;1.73;;;;;;;;;;4983303;28;87472;-65
2023/12/10 04:49:31;;;;;;;3.73;0.80;;;;;;;;;;4981836;28;89660;-65
2023/12/10 04:52:00;;;;;;;1.77;0.93;;;;;;;;;;4983229;28;89226;-65
2023/12/10 04:54:29;;;;;;;4.07;1.77;;;;;;;;;;4984722;28;88869;-65
2023/12/10 04:56:58;;;;;;;4.00;1.50;;;;;;;;;;4983859;28;87794;-65
2023/12/10 04:59:30;;;;;;;2.70;1.37;;;;;;;;;;4991673;28;89586;-65
2023/12/10 05:01:58;;;;;;;1.73;1.50;;;;;;;;;;4982499;28;89404;-65
2023/12/10 05:04:30;;;;;;;3.10;1.27;;;;;;;;;;4981293;28;88773;-65
2023/12/10 05:06:58;;;;;;;4.00;1.67;;;;;;;;;;4981981;28;87524;-65
2023/12/10 05:09:27;;;;;;;4.83;1.97;;;;;;;;;;4981463;28;89031;-65
2023/12/10 05:11:55;;;;;;;3.77;1.03;;;;;;;;;;4981899;28;89515;-65
2023/12/10 05:14:24;;;;;;;2.13;1.93;;;;;;;;;;4981958;28;89629;-65
2023/12/10 05:16:52;;;;;;;4.60;2.20;;;;;;;;;;4982128;28;88403;-65
2023/12/10 05:19:20;;;;;;;4.50;2.23;;;;;;;;;;4981675;28;88634;-64
2023/12/10 05:21:50;;;;;;;3.00;1.70;;;;;;;;;;4982196;28;89146;-65
2023/12/10 05:24:19;;;;;;;4.00;1.93;;;;;;;;;;4983122;28;90337;-65
2023/12/10 05:26:50;;;;;;;3.53;2.03;;;;;;;;;;4976439;28;87591;-64
2023/12/10 05:29:19;;;;;;;5.33;2.20;;;;;;;;;;4968019;28;89084;-64
2023/12/10 05:31:48;;;;;;;3.13;2.20;;;;;;;;;;4998498;28;91761;-67
2023/12/10 05:34:16;;;;;;;6.23;2.00;;;;;;;;;;4992710;28;89143;-64
2023/12/10 05:36:45;;;;;;;4.87;2.17;;;;;;;;;;4982110;28;87638;-65
2023/12/10 05:39:15;;;;;;;6.20;1.90;;;;;;;;;;4982174;28;89723;-64
2023/12/10 05:41:43;;;;;;;3.80;2.13;;;;;;;;;;4982223;28;88031;-65
2023/12/10 05:44:12;;;;;;;5.97;2.83;;;;;;;;;;4981541;28;88801;-65
2023/12/10 05:46:42;;;;;;;4.03;2.30;;;;;;;;;;4982932;28;87660;-65
2023/12/10 05:49:10;;;;;;;4.00;2.13;;;;;;;;;;4982293;28;89650;-65
2023/12/10 05:51:39;;;;;;;5.60;2.60;;;;;;;;;;4982224;28;89461;-65
2023/12/10 05:54:07;;;;;;;9.03;2.50;;;;;;;;;;4980519;28;88782;-65
2023/12/10 05:56:38;;;;;;;5.73;2.33;;;;;;;;;;4982101;28;87648;-65
2023/12/10 05:59:07;;;;;;;6.90;2.30;;;;;;;;;;4981360;28;92128;-65
2023/12/10 06:01:38;;;;;;;4.33;2.43;;;;;;;;;;4971965;28;89103;-65
2023/12/10 06:04:07;;;;;;;6.27;2.40;;;;;;;;;;4980774;28;88986;-65
2023/12/10 06:06:37;;;;;;;7.27;2.43;;;;;;;;;;4981586;28;87665;-65
2023/12/10 06:09:07;;;;;;;1.93;1.60;;;;;;;;;;4981740;28;91168;-66
2023/12/10 06:11:37;;;;;;;3.77;2.73;;;;;;;;;;4979079;28;89197;-66
2023/12/10 06:14:06;;;;;;;5.63;3.17;;;;;;;;;;4980490;28;87403;-66
2023/12/10 06:16:36;;;;;;;3.77;2.50;;;;;;;;;;4980965;28;87644;-66
2023/12/10 06:19:05;;;;;;;3.00;2.10;;;;;;;;;;4980555;28;89623;-65
2023/12/10 06:21:34;;;;;;;2.37;1.97;;;;;;;;;;4980693;28;89089;-66
2023/12/10 06:24:04;;;;;;;3.93;2.53;;;;;;;;;;4978221;28;88943;-66
2023/12/10 06:26:32;;;;;;;5.43;1.70;;;;;;;;;;4980059;28;87567;-65
2023/12/10 06:29:02;;;;;;;2.80;2.03;;;;;;;;;;4977596;28;89693;-65
2023/12/10 06:31:32;;;;;;;4.50;2.70;;;;;;;;;;4979770;28;88806;-65
2023/12/10 06:34:00;;;;;;;3.83;2.77;;;;;;;;;;4980197;28;88906;-66
2023/12/10 06:36:29;;;;;;;4.87;2.70;;;;;;;;;;4981187;28;87715;-65
2023/12/10 06:38:58;;;;;;;4.30;2.50;;;;;;;;;;4980970;28;89220;-65
2023/12/10 06:41:26;;;;;;;4.80;2.40;;;;;;;;;;4982222;28;89019;-65
2023/12/10 06:43:55;;;;;;;3.67;2.80;;;;;;;;;;4978462;28;89173;-65
2023/12/10 06:46:26;;;;;;;7.40;2.63;;;;;;;;;;4983275;28;87630;-65
2023/12/10 06:48:57;;;;;;;3.20;2.60;;;;;;;;;;4983234;28;89694;-66
2023/12/10 06:51:25;;;;;;;3.17;2.73;;;;;;;;;;4981755;28;87824;-66
2023/12/10 06:53:54;;;;;;;3.53;2.40;;;;;;;;;;4975484;28;88901;-67
2023/12/10 06:56:23;;;;;;;7.83;2.67;;;;;;;;;;4976647;28;87742;-67
2023/12/10 06:58:53;;;;;;;5.77;2.40;;;;;;;;;;4995640;28;89732;-66
2023/12/10 07:01:24;;;;;;;4.17;3.03;;;;;;;;;;4980386;28;89425;-66
2023/12/10 07:03:58;;;;;;;6.37;2.53;;;;;;;;;;4980071;28;87905;-66
2023/12/10 07:06:28;;;;;;;6.00;3.27;;;;;;;;;;4978375;28;88633;-66
2023/12/10 07:08:56;;;;;;;4.43;2.77;;;;;;;;;;4988905;28;89397;-66
2023/12/10 07:11:29;;;;;;;4.73;2.70;;;;;;;;;;4990167;28;89169;-66
2023/12/10 07:13:58;;;;;;;4.10;2.33;;;;;;;;;;4978582;28;88677;-65
2023/12/10 07:16:27;;;;;;;7.33;2.80;;;;;;;;;;4980581;28;87638;-65
2023/12/10 07:18:57;;;;;;;6.10;2.80;;;;;;;;;;4979740;28;90333;-64
2023/12/10 07:21:26;;;;;;;5.33;3.13;;;;;;;;;;4985860;28;90416;-65
2023/12/10 07:23:54;;;;;;;6.87;3.27;;;;;;;;;;4978845;28;89098;-66
2023/12/10 07:26:23;;;;;;;5.77;2.70;;;;;;;;;;4981772;28;88589;-62
2023/12/10 07:28:52;;;;;;;7.57;4.07;;;;;;;;;;4976495;28;89699;-62
2023/12/10 07:31:20;;;;;;;4.50;3.07;;;;;;;;;;4979323;28;89162;-62
2023/12/10 07:33:48;;;;;;;7.93;3.03;;;;;;;;;;4970821;28;88986;-63
2023/12/10 07:36:18;;;;;;;3.10;2.53;;;;;;;;;;4975924;28;87948;-63
2023/12/10 07:38:47;;;;;;;5.30;2.80;;;;;;;;;;4980547;28;90009;-64
2023/12/10 07:41:17;;;;;;;3.03;2.00;;;;;;;;;;4979928;28;89121;-64
2023/12/10 07:43:48;;;;;;;7.90;3.70;;;;;;;;;;4980307;28;87960;-65
2023/12/10 07:46:17;;;;;;;3.33;2.50;;;;;;;;;;4983515;28;87960;-66
2023/12/10 07:48:45;;;;;;;4.80;2.70;;;;;;;;;;4990511;28;88782;-65
2023/12/10 07:51:14;;;;;;;4.97;2.60;;;;;;;;;;4987929;28;89188;-65
2023/12/10 07:53:43;;;;;;;2.70;2.33;;;;;;;;;;4980488;28;88117;-65
2023/12/10 07:56:13;;;;;;;4.17;2.47;;;;;;;;;;4980886;28;87618;-65
2023/12/10 07:58:41;;;;;;;7.13;2.90;;;;;;;;;;4993156;28;89680;-64
2023/12/10 08:01:10;;;;;;;3.07;2.27;;;;;;;;;;4980329;28;89235;-66
2023/12/10 08:03:39;;;;;;;9.50;2.63;;;;;;;;;;4980233;28;88947;-67
2023/12/10 08:06:08;;;;;;;4.50;2.63;;;;;;;;;;4980623;28;87723;-67
2023/12/10 08:08:36;;;;;;;8.53;2.67;;;;;;;;;;4980219;28;88806;-67
2023/12/10 08:11:06;;;;;;;4.93;2.77;;;;;;;;;;4980280;28;89020;-67
2023/12/10 08:13:36;;;;;;;3.87;2.10;;;;;;;;;;4980126;28;88795;-67
2023/12/10 08:16:04;;;;;;;3.40;2.27;;;;;;;;;;4980690;28;87675;-67
2023/12/10 08:18:33;;;;;;;4.33;2.50;;;;;;;;;;4983554;28;89564;-66
2023/12/10 08:21:02;;;;;;;8.67;2.87;;;;;;;;;;4983308;28;89667;-66
2023/12/10 08:23:30;;;;;;;5.17;2.80;;;;;;;;;;4982781;28;88781;-66
2023/12/10 08:25:58;;;;;;;3.20;1.80;;;;;;;;;;4982922;28;87460;-67
2023/12/10 08:28:28;;;;;;;3.13;1.47;;;;;;;;;;4981144;28;89699;-68
2023/12/10 08:30:57;;;;;;;3.17;1.83;;;;;;;;;;4977486;28;89211;-67
2023/12/10 08:33:26;;;;;;;3.03;1.90;;;;;;;;;;4980174;28;88890;-66
2023/12/10 08:35:54;;;;;;;4.73;2.57;;;;;;;;;;4980379;28;87552;-66
2023/12/10 08:38:23;;;;;;;4.43;2.33;;;;;;;;;;4979595;28;89632;-67
2023/12/10 08:40:52;;;;;;;3.27;2.97;;;;;;;;;;4980153;28;88825;-69
2023/12/10 08:43:21;;;;;;;5.57;2.77;;;;;;;;;;4979481;28;88088;-66
2023/12/10 08:45:50;;;;;;;5.43;2.37;;;;;;;;;;4981005;28;87492;-73
2023/12/10 08:48:19;;;;;;;5.60;2.03;;;;;;;;;;4979923;28;89873;-73
2023/12/10 08:50:48;;;;;;;3.57;2.07;;;;;;;;;;4980088;28;89569;-73
2023/12/10 08:53:16;;;;;;;2.77;2.00;;;;;;;;;;4979578;28;88779;-73
2023/12/10 08:55:44;;;;;;;2.77;1.80;;;;;;;;;;4977903;28;89699;-69
2023/12/10 08:58:15;;;;;;;2.83;1.67;;;;;;;;;;4980154;28;89741;-69
2023/12/10 09:00:45;;;;;;;2.43;1.53;;;;;;;;;;4979497;28;89333;-68
2023/12/10 09:03:15;;;;;;;2.47;1.77;;;;;;;;;;4980343;28;88654;-69
2023/12/10 09:05:43;;;;;;;5.13;2.20;;;;;;;;;;4980218;28;87948;-70
2023/12/10 09:08:12;;;;;;;2.97;2.23;;;;;;;;;;4979805;28;90424;-69
2023/12/10 09:10:40;;;;;;;4.60;2.47;;;;;;;;;;4979966;28;89108;-70
2023/12/10 09:13:08;;;;;;;5.77;2.60;;;;;;;;;;4979593;28;88800;-69
2023/12/10 09:15:37;;;;;;;3.93;2.47;;;;;;;;;;4980298;28;87648;-69
2023/12/10 09:18:05;;;;;;;3.80;2.13;;;;;;;;;;4979933;28;92596;-69
2023/12/10 09:20:37;;;;;;;3.43;2.20;;;;;;;;;;4979382;28;89055;-69
2023/12/10 09:23:06;;;;;;;3.97;2.10;;;;;;;;;;4979648;28;88692;-69
2023/12/10 09:25:35;;;;;;;6.80;2.90;;;;;;;;;;4980063;28;87938;-69
2023/12/10 09:28:03;;;;;;;2.70;2.23;;;;;;;;;;4979938;28;88511;-69
2023/12/10 09:30:35;;;;;;;4.70;2.03;;;;;;;;;;4980176;28;89536;-69
2023/12/10 09:33:05;;;;;;;5.63;2.83;;;;;;;;;;4979530;28;88230;-69
2023/12/10 09:35:35;;;;;;;3.43;2.87;;;;;;;;;;4979271;28;87409;-68
2023/12/10 09:38:05;;;;;;;3.17;1.87;;;;;;;;;;4979224;28;89574;-68
2023/12/10 09:40:33;;;;;;;3.13;2.00;;;;;;;;;;4979645;28;89281;-66
2023/12/10 09:43:02;;;;;;;6.47;1.93;;;;;;;;;;4979004;28;88858;-68
2023/12/10 09:45:30;;;;;;;3.27;2.50;;;;;;;;;;4979043;28;87548;-69
2023/12/10 09:47:59;;;;;;;2.97;1.87;;;;;;;;;;4978931;28;88505;-68
2023/12/10 09:50:28;;;;;;;3.80;2.27;;;;;;;;;;4979379;28;87961;-68
2023/12/10 09:52:56;;;;;;;4.70;3.17;;;;;;;;;;4979145;28;89039;-69
2023/12/10 09:55:26;;;;;;;4.80;2.33;;;;;;;;;;4983100;28;87546;-69
2023/12/10 09:57:55;;;;;;;1.93;1.77;;;;;;;;;;4997631;28;89683;-69
2023/12/10 10:00:24;;;;;;;3.23;1.93;;;;;;;;;;4990843;28;89062;-68
2023/12/10 10:02:53;;;;;;;3.17;2.30;;;;;;;;;;4983163;28;88785;-71
2023/12/10 10:05:21;;;;;;;2.77;1.80;;;;;;;;;;4978647;28;87706;-72
2023/12/10 10:07:51;;;;;;;4.30;2.43;;;;;;;;;;4979175;28;89615;-70
2023/12/10 10:10:22;;;;;;;5.53;2.30;;;;;;;;;;4978466;28;89220;-65
2023/12/10 10:12:52;;;;;;;3.40;1.43;;;;;;;;;;4978677;28;89148;-65
2023/12/10 10:15:26;;;;;;;3.17;1.97;;;;;;;;;;4995592;28;87551;-65
2023/12/10 10:17:55;;;;;;;3.67;1.70;;;;;;;;;;4978024;28;89880;-64
2023/12/10 10:20:27;;;;;;;4.97;1.63;;;;;;;;;;4979094;28;89471;-64
2023/12/10 10:22:55;;;;;;;3.77;1.90;;;;;;;;;;4979573;28;88162;-65
2023/12/10 10:25:24;;;;;;;3.83;2.10;;;;;;;;;;4979268;28;87651;-65
2023/12/10 10:27:54;;;;;;;3.60;2.00;;;;;;;;;;4978332;28;89795;-65
2023/12/10 10:30:22;;;;;;;2.27;1.57;;;;;;;;;;4978429;28;89255;-65
2023/12/10 10:32:51;;;;;;;4.43;2.03;;;;;;;;;;4978237;28;88572;-65
2023/12/10 10:35:20;;;;;;;2.07;1.20;;;;;;;;;;4978602;28;87428;-65
2023/12/10 10:37:48;;;;;;;2.60;1.70;;;;;;;;;;4978129;28;89947;-66
2023/12/10 10:40:16;;;;;;;3.27;1.53;;;;;;;;;;4977757;28;89429;-66
2023/12/10 10:42:45;;;;;;;2.33;1.37;;;;;;;;;;4979455;28;88750;-65
2023/12/10 10:45:15;;;;;;;2.03;1.20;;;;;;;;;;4998111;28;87427;-65
2023/12/10 10:47:43;;;;;;;3.20;1.70;;;;;;;;;;4998020;28;89816;-65
2023/12/10 10:50:12;;;;;;;3.13;1.20;;;;;;;;;;4998004;28;89194;-65
2023/12/10 10:52:51;;;;;;;3.03;1.73;;;;;;;;;;4977563;28;88853;-65
2023/12/10 10:55:20;;;;;;;4.30;1.47;;;;;;;;;;4979084;28;87887;-65
2023/12/10 10:57:48;;;;;;;6.67;1.97;;;;;;;;;;4978379;28;89642;-65
2023/12/10 11:00:35;;;;;;;1.20;1.10;;;;;;;;;;4976644;28;88040;-65
2023/12/10 11:03:05;;;;;;;2.07;1.33;;;;;;;;;;4978225;28;87622;-66
2023/12/10 11:05:33;;;;;;;2.50;1.50;;;;;;;;;;4977926;28;87648;-66
2023/12/10 11:08:03;;;;;;;1.80;1.20;;;;;;;;;;4978222;28;89645;-66
2023/12/10 11:10:32;;;;;;;2.80;1.17;;;;;;;;;;4978927;28;90395;-65
2023/12/10 11:13:00;;;;;;;3.43;1.57;;;;;;;;;;4977841;28;88772;-66
2023/12/10 11:15:29;;;;;;;1.67;1.37;;;;;;;;;;4978590;28;87800;-65
2023/12/10 11:18:02;;;;;;;3.97;1.60;;;;;;;;;;4983894;28;89724;-66
2023/12/10 11:20:35;;;;;;;2.10;1.23;;;;;;;;;;4997599;28;89172;-65
2023/12/10 11:23:03;;;;;;;2.23;1.13;;;;;;;;;;4997385;28;91465;-64
2023/12/10 11:25:32;;;;;;;1.73;1.10;;;;;;;;;;4994303;28;87681;-64
2023/12/10 11:28:01;;;;;;;2.53;1.40;;;;;;;;;;4991454;28;89596;-63
2023/12/10 11:30:30;;;;;;;3.03;1.20;;;;;;;;;;4977497;28;89147;-63
2023/12/10 11:32:59;;;;;;;0.90;0.80;;;;;;;;;;4977927;28;89083;-63
2023/12/10 11:35:29;;;;;;;3.83;1.83;;;;;;;;;;4984398;28;87599;-64
2023/12/10 11:37:57;;;;;;;3.87;1.90;;;;;;;;;;4998117;28;90152;-63
2023/12/10 11:40:26;;;;;;;1.23;0.90;;;;;;;;;;4997246;28;89623;-63
2023/12/10 11:42:54;;;;;;;6.00;1.67;;;;;;;;;;4994698;28;88969;-64
2023/12/10 11:45:21;;;;;;;1.57;1.43;;;;;;;;;;4997643;28;88263;-64
2023/12/10 11:47:51;;;;;;;2.97;1.53;;;;;;;;;;4997793;28;89406;-64
2023/12/10 11:50:20;;;;;;;2.20;1.30;;;;;;;;;;4996786;28;89095;-64
2023/12/10 11:52:50;;;;;;;1.70;1.30;;;;;;;;;;4980567;28;91328;-64
2023/12/10 11:55:18;;;;;;;1.53;1.03;;;;;;;;;;4986514;28;87748;-64
2023/12/10 11:57:46;;;;;;;2.43;1.40;;;;;;;;;;4993842;28;87494;-64
2023/12/10 12:00:15;;;;;;;2.63;1.33;;;;;;;;;;4995115;28;89195;-64
2023/12/10 12:02:44;;;;;;;1.73;1.60;;;;;;;;;;4994932;28;87446;-65
2023/12/10 12:05:13;;;;;;;3.77;1.40;;;;;;;;;;4982464;28;88323;-65
2023/12/10 12:07:45;;;;;;;1.10;1.00;;;;;;;;;;4984657;28;90183;-65
2023/12/10 12:10:15;;;;;;;2.87;1.63;;;;;;;;;;4993639;28;87967;-65
2023/12/10 12:12:44;;;;;;;3.03;1.20;;;;;;;;;;4995273;28;89488;-65
2023/12/10 12:15:13;;;;;;;2.00;1.20;;;;;;;;;;4987016;28;87679;-65
2023/12/10 12:17:41;;;;;;;2.50;1.17;;;;;;;;;;4994122;28;88506;-64
2023/12/10 12:20:17;;;;;;;6.47;1.30;;;;;;;;;;4994424;28;87844;-65
2023/12/10 12:22:45;;;;;;;4.60;1.63;;;;;;;;;;4984404;28;88459;-65
2023/12/10 12:25:18;;;;;;;3.20;1.70;;;;;;;;;;4997776;28;87593;-64
2023/12/10 12:27:46;;;;;;;2.30;1.23;;;;;;;;;;4991319;28;89685;-65
2023/12/10 12:30:16;;;;;;;3.37;1.40;;;;;;;;;;4977451;28;88957;-65
2023/12/10 12:32:45;;;;;;;1.77;1.40;;;;;;;;;;4993774;28;92097;-64
2023/12/10 12:35:14;;;;;;;2.90;1.10;;;;;;;;;;4985053;28;88443;-64
2023/12/10 12:37:43;;;;;;;2.10;1.30;;;;;;;;;;4976484;28;89952;-64
2023/12/10 12:40:12;;;;;;;2.23;1.60;;;;;;;;;;4987216;28;89153;-64
2023/12/10 12:42:41;;;;;;;3.73;1.43;;;;;;;;;;4995997;28;88776;-64
2023/12/10 12:45:10;;;;;;;2.47;1.60;;;;;;;;;;4992666;28;87379;-64
2023/12/10 12:47:39;;;;;;;2.43;1.40;;;;;;;;;;4964825;28;88840;-65
2023/12/10 12:50:08;;;;;;;2.90;1.27;;;;;;;;;;4957653;28;87982;-63
2023/12/10 12:52:36;;;;;;;4.40;2.40;;;;;;;;;;4985759;28;89638;-64
2023/12/10 12:55:06;;;;;;;1.43;1.33;;;;;;;;;;4996382;28;87901;-64
2023/12/10 12:57:34;;;;;;;2.47;1.50;;;;;;;;;;4995835;28;89584;-64
2023/12/10 13:00:05;;;;;;;1.77;1.33;;;;;;;;;;4996379;28;89282;-64
2023/12/10 13:02:33;;;;;;;3.83;1.77;;;;;;;;;;4991677;28;89173;-65
2023/12/10 13:05:02;;;;;;;2.93;1.70;;;;;;;;;;5000074;28;87666;-64
2023/12/10 13:07:30;;;;;;;5.63;2.13;;;;;;;;;;4995778;28;89935;-64
2023/12/10 13:09:59;;;;;;;2.63;1.70;;;;;;;;;;4990698;28;89222;-65
2023/12/10 13:12:32;;;;;;;5.03;1.83;;;;;;;;;;4993218;28;88982;-64
2023/12/10 13:15:01;;;;;;;5.97;1.63;;;;;;;;;;4984885;28;87342;-64
2023/12/10 13:17:31;;;;;;;9.80;1.83;;;;;;;;;;4979836;28;89575;-63
2023/12/10 13:20:00;;;;;;;3.67;2.47;;;;;;;;;;4983650;28;89107;-64
2023/12/10 13:22:28;;;;;;;4.93;2.27;;;;;;;;;;4998535;28;88810;-64
2023/12/10 13:24:57;;;;;;;1.73;1.40;;;;;;;;;;4979949;28;87703;-64
2023/12/10 13:27:26;;;;;;;5.00;2.17;;;;;;;;;;4980264;28;90100;-64
2023/12/10 13:29:54;;;;;;;5.67;2.17;;;;;;;;;;4978777;28;88104;-64
2023/12/10 13:32:23;;;;;;;3.20;2.37;;;;;;;;;;4979366;28;87786;-64
2023/12/10 13:34:53;;;;;;;5.37;2.30;;;;;;;;;;4979795;28;87601;-65
2023/12/10 13:37:22;;;;;;;3.07;1.93;;;;;;;;;;4979216;28;87711;-64
2023/12/10 13:39:50;;;;;;;4.30;2.23;;;;;;;;;;4979850;28;89241;-64
2023/12/10 13:42:19;;;;;;;2.37;1.83;;;;;;;;;;4979301;28;88209;-64
2023/12/10 13:44:48;;;;;;;3.17;1.97;;;;;;;;;;4979459;28;87654;-64
2023/12/10 13:47:16;;;;;;;6.43;2.90;;;;;;;;;;4975118;28;89967;-66
2023/12/10 13:49:44;;;;;;;2.77;1.70;;;;;;;;;;4978056;28;88855;-64
2023/12/10 13:52:14;;;;;;;6.27;2.60;;;;;;;;;;4977723;28;89114;-64
2023/12/10 13:54:43;;;;;;;3.33;2.13;;;;;;;;;;4980896;28;87348;-63
2023/12/10 13:57:11;;;;;;;3.40;2.50;;;;;;;;;;4979589;28;88624;-63
2023/12/10 13:59:40;;;;;;;3.37;2.67;;;;;;;;;;4979047;28;88853;-64
2023/12/10 14:02:08;;;;;;;3.00;1.80;;;;;;;;;;4979971;28;88882;-65
2023/12/10 14:04:37;;;;;;;3.97;2.77;;;;;;;;;;4978462;28;87815;-64
2023/12/10 14:07:06;;;;;;;4.90;3.03;;;;;;;;;;4978746;28;89697;-64
2023/12/10 14:09:36;;;;;;;7.07;3.23;;;;;;;;;;4978831;28;89445;-65
2023/12/10 14:12:06;;;;;;;4.83;3.43;;;;;;;;;;4978645;28;92016;-65
2023/12/10 14:14:34;;;;;;;6.77;2.90;;;;;;;;;;4986097;28;87604;-66
2023/12/10 14:17:02;;;;;;;8.87;3.60;;;;;;;;;;4998348;28;89689;-65
2023/12/10 14:19:31;;;;;;;5.87;3.73;;;;;;;;;;4999056;28;89385;-65
2023/12/10 14:21:59;;;;;;;5.77;3.93;;;;;;;;;;4999054;28;88195;-65
2023/12/10 14:24:28;;;;;;;7.93;3.93;;;;;;;;;;4998357;28;87749;-65
2023/12/10 14:26:58;;;;;;;6.00;4.07;;;;;;;;;;4997832;28;89706;-66
2023/12/10 14:29:26;;;;;;;10.47;4.07;;;;;;;;;;4978786;28;88021;-66
2023/12/10 14:31:55;;;;;;;8.73;4.80;;;;;;;;;;4978722;28;88102;-65
2023/12/10 14:34:23;;;;;;;8.67;4.67;;;;;;;;;;4979021;28;87645;-66
2023/12/10 14:36:52;;;;;;;9.53;5.10;;;;;;;;;;4978170;28;90295;-65
2023/12/10 14:39:22;;;;;;;10.83;4.93;;;;;;;;;;4978144;28;89199;-65
2023/12/10 14:41:51;;;;;;;7.30;4.80;;;;;;;;;;4977719;28;88912;-66
2023/12/10 14:44:21;;;;;;;9.73;4.63;;;;;;;;;;4978278;28;87672;-66
2023/12/10 14:46:49;;;;;;;11.37;4.67;;;;;;;;;;4978526;28;90727;-66
2023/12/10 14:49:18;;;;;;;7.60;4.63;;;;;;;;;;4988682;28;87646;-65
2023/12/10 14:51:49;;;;;;;9.63;4.67;;;;;;;;;;4977980;28;89013;-66
2023/12/10 14:54:17;;;;;;;7.27;4.43;;;;;;;;;;4984292;28;87535;-65